createdAt,value
2023-11-30T00:00:45.345Z,26.01
2023-11-30T00:03:12.911Z,26.16
2023-11-30T00:05:41.826Z,25.74
2023-11-30T00:08:09.358Z,25.77
2023-11-30T00:10:36.880Z,25.99
2023-11-30T00:13:05.016Z,26.14
2023-11-30T00:15:32.843Z,26.30
2023-11-30T00:18:00.478Z,26.06
2023-11-30T00:20:28.062Z,26.21
2023-11-30T00:22:56.934Z,26.35
2023-11-30T00:25:24.487Z,26.16
2023-11-30T00:27:52.493Z,26.33
2023-11-30T00:30:20.068Z,25.95
2023-11-30T00:32:47.708Z,26.36
2023-11-30T00:35:15.375Z,26.25
2023-11-30T00:37:42.921Z,26.14
2023-11-30T00:40:12.399Z,26.18
2023-11-30T00:42:40.041Z,26.22
2023-11-30T00:45:09.085Z,26.29
2023-11-30T00:47:36.454Z,26.48
2023-11-30T00:50:04.462Z,26.38
2023-11-30T00:52:31.963Z,26.09
2023-11-30T00:54:59.455Z,26.25
2023-11-30T00:57:28.417Z,25.93
2023-11-30T00:59:55.890Z,25.84
2023-11-30T01:02:23.515Z,25.79
2023-11-30T01:04:51.042Z,25.69
2023-11-30T01:07:18.568Z,26.09
2023-11-30T01:09:46.077Z,26.10
2023-11-30T01:12:13.589Z,26.10
2023-11-30T01:14:43.352Z,26.19
2023-11-30T01:17:10.887Z,25.89
2023-11-30T01:19:38.367Z,26.06
2023-11-30T01:22:07.799Z,26.40
2023-11-30T01:24:35.334Z,26.40
2023-11-30T01:27:03.172Z,26.43
2023-11-30T01:29:30.645Z,26.41
2023-11-30T01:31:59.504Z,26.39
2023-11-30T01:34:27.029Z,26.36
2023-11-30T01:36:54.561Z,26.57
2023-11-30T01:39:22.148Z,26.52
2023-11-30T01:41:49.782Z,26.47
2023-11-30T01:44:17.334Z,26.31
2023-11-30T01:46:44.877Z,26.44
2023-11-30T01:49:13.787Z,26.44
2023-11-30T01:51:42.208Z,26.45
2023-11-30T01:54:09.757Z,26.35
2023-11-30T01:56:37.441Z,25.94
2023-11-30T01:59:04.983Z,26.21
2023-11-30T02:01:32.785Z,26.23
2023-11-30T02:04:00.453Z,26.12
2023-11-30T02:06:29.315Z,26.17
2023-11-30T02:08:56.867Z,26.12
2023-11-30T02:11:24.394Z,26.10
2023-11-30T02:13:51.983Z,26.11
2023-11-30T02:16:19.663Z,26.18
2023-11-30T02:18:47.244Z,26.14
2023-11-30T02:21:14.846Z,26.22
2023-11-30T02:23:43.796Z,26.50
2023-11-30T02:26:11.976Z,26.29
2023-11-30T02:28:39.523Z,26.13
2023-11-30T02:31:07.133Z,26.27
2023-11-30T02:33:34.634Z,26.13
2023-11-30T02:36:02.178Z,26.34
2023-11-30T02:38:29.750Z,26.26
2023-11-30T02:40:58.589Z,26.32
2023-11-30T02:43:29.123Z,26.09
2023-11-30T02:45:56.670Z,26.20
2023-11-30T02:48:24.229Z,26.28
2023-11-30T02:50:51.794Z,25.95
2023-11-30T02:53:19.299Z,25.98
2023-11-30T02:55:46.827Z,26.12
2023-11-30T02:58:15.747Z,26.24
2023-11-30T03:00:43.138Z,26.15
2023-11-30T03:03:10.790Z,26.27
2023-11-30T03:05:38.335Z,26.08
2023-11-30T03:08:06.368Z,26.30
2023-11-30T03:10:33.952Z,26.43
2023-11-30T03:13:01.484Z,26.36
2023-11-30T03:15:31.977Z,26.47
2023-11-30T03:17:59.740Z,26.49
2023-11-30T03:20:27.362Z,26.50
2023-11-30T03:22:54.893Z,26.44
2023-11-30T03:25:22.520Z,26.50
2023-11-30T03:27:50.018Z,26.37
2023-11-30T03:30:17.590Z,26.27
2023-11-30T03:32:46.706Z,26.25
2023-11-30T03:35:14.355Z,26.32
2023-11-30T03:37:43.923Z,26.20
2023-11-30T03:40:12.428Z,26.47
2023-11-30T03:42:39.999Z,26.43
2023-11-30T03:45:08.223Z,26.42
2023-11-30T03:47:35.900Z,26.69
2023-11-30T03:50:05.139Z,26.80
2023-11-30T03:52:32.730Z,26.92
2023-11-30T03:55:00.298Z,26.69
2023-11-30T03:57:27.863Z,26.76
2023-11-30T03:59:55.438Z,26.53
2023-11-30T04:02:23.048Z,26.67
2023-11-30T04:04:50.621Z,26.57
2023-11-30T04:07:19.478Z,26.50
2023-11-30T04:09:48.540Z,26.69
2023-11-30T04:12:16.054Z,26.67
2023-11-30T04:14:43.548Z,26.72
2023-11-30T04:17:11.681Z,26.69
2023-11-30T04:19:39.206Z,26.54
2023-11-30T04:22:06.767Z,26.57
2023-11-30T04:24:35.717Z,26.58
2023-11-30T04:27:03.584Z,26.69
2023-11-30T04:29:31.134Z,26.51
2023-11-30T04:31:58.695Z,26.79
2023-11-30T04:34:26.201Z,26.66
2023-11-30T04:36:53.740Z,26.55
2023-11-30T04:39:21.862Z,26.82
2023-11-30T04:41:51.038Z,26.53
2023-11-30T04:44:20.190Z,26.67
2023-11-30T04:46:49.078Z,26.51
2023-11-30T04:49:16.624Z,26.65
2023-11-30T04:51:44.143Z,26.45
2023-11-30T04:54:11.675Z,26.74
2023-11-30T04:56:39.447Z,26.86
2023-11-30T04:59:08.319Z,26.64
2023-11-30T05:01:37.290Z,26.79
2023-11-30T05:04:05.234Z,26.62
2023-11-30T05:06:32.946Z,26.87
2023-11-30T05:09:00.474Z,26.75
2023-11-30T05:11:28.017Z,26.61
2023-11-30T05:13:55.616Z,26.75
2023-11-30T05:16:24.543Z,26.67
2023-11-30T05:18:51.949Z,26.61
2023-11-30T05:21:19.502Z,26.67
2023-11-30T05:23:47.019Z,26.63
2023-11-30T05:26:14.614Z,26.47
2023-11-30T05:28:42.344Z,26.73
2023-11-30T05:31:09.987Z,26.44
2023-11-30T05:33:39.350Z,26.79
2023-11-30T05:36:07.746Z,26.72
2023-11-30T05:38:35.237Z,26.71
2023-11-30T05:41:02.822Z,26.64
2023-11-30T05:43:33.613Z,26.62
2023-11-30T05:46:01.988Z,26.88
2023-11-30T05:48:29.565Z,26.72
2023-11-30T05:50:58.523Z,26.96
2023-11-30T05:53:26.662Z,27.06
2023-11-30T05:55:54.204Z,27.03
2023-11-30T05:58:21.717Z,26.93
2023-11-30T06:00:49.301Z,26.76
2023-11-30T06:03:16.905Z,26.88
2023-11-30T06:05:44.490Z,26.81
2023-11-30T06:08:13.320Z,26.98
2023-11-30T06:10:40.853Z,26.78
2023-11-30T06:13:08.975Z,27.03
2023-11-30T06:15:36.634Z,26.69
2023-11-30T06:18:04.383Z,26.93
2023-11-30T06:20:32.106Z,26.80
2023-11-30T06:22:59.587Z,26.87
2023-11-30T06:25:28.441Z,26.96
2023-11-30T06:27:55.985Z,26.90
2023-11-30T06:30:23.513Z,26.93
2023-11-30T06:32:51.049Z,26.61
2023-11-30T06:35:18.606Z,26.70
2023-11-30T06:37:46.190Z,27.04
2023-11-30T06:40:14.378Z,26.82
2023-11-30T06:42:43.294Z,26.83
2023-11-30T06:45:11.122Z,26.87
2023-11-30T06:47:38.735Z,26.87
2023-11-30T06:50:07.925Z,26.73
2023-11-30T06:52:35.435Z,26.83
2023-11-30T06:55:03.760Z,26.77
2023-11-30T06:57:31.352Z,26.66
2023-11-30T07:00:00.389Z,26.45
2023-11-30T07:02:29.202Z,26.83
2023-11-30T07:04:56.900Z,26.69
2023-11-30T07:07:31.481Z,26.74
2023-11-30T07:10:03.819Z,26.61
2023-11-30T07:12:31.426Z,26.53
2023-11-30T07:15:00.536Z,26.69
2023-11-30T07:17:28.122Z,26.50
2023-11-30T07:19:55.645Z,26.78
2023-11-30T07:22:25.737Z,26.55
2023-11-30T07:24:53.418Z,26.62
2023-11-30T07:27:21.036Z,26.53
2023-11-30T07:29:48.712Z,26.30
2023-11-30T07:32:17.842Z,26.72
2023-11-30T07:34:46.871Z,26.67
2023-11-30T07:37:17.172Z,26.43
2023-11-30T07:39:44.865Z,26.55
2023-11-30T07:42:13.360Z,26.82
2023-11-30T07:44:42.075Z,26.61
2023-11-30T07:47:09.674Z,26.63
2023-11-30T07:49:38.688Z,26.61
2023-11-30T07:52:06.274Z,26.38
2023-11-30T07:54:33.821Z,26.54
2023-11-30T07:57:02.081Z,26.46
2023-11-30T07:59:29.756Z,26.58
2023-11-30T08:01:57.299Z,26.97
2023-11-30T08:04:24.950Z,26.71
2023-11-30T08:06:53.864Z,26.75
2023-11-30T08:09:22.280Z,26.85
2023-11-30T08:11:49.861Z,26.55
2023-11-30T08:14:17.474Z,26.66
2023-11-30T08:16:45.006Z,26.65
2023-11-30T08:19:12.585Z,26.68
2023-11-30T08:21:42.050Z,26.79
2023-11-30T08:24:11.023Z,26.61
2023-11-30T08:26:38.439Z,26.70
2023-11-30T08:29:06.024Z,26.75
2023-11-30T08:31:34.694Z,26.82
2023-11-30T08:34:02.448Z,26.59
2023-11-30T08:36:30.047Z,26.91
2023-11-30T08:38:57.554Z,26.82
2023-11-30T08:41:26.408Z,26.87
2023-11-30T08:43:53.927Z,26.41
2023-11-30T08:46:21.575Z,26.72
2023-11-30T08:48:49.183Z,26.68
2023-11-30T08:51:16.822Z,26.83
2023-11-30T08:53:44.432Z,26.96
2023-11-30T08:56:12.877Z,26.76
2023-11-30T08:58:41.769Z,26.75
2023-11-30T09:01:09.529Z,26.85
2023-11-30T09:03:37.148Z,27.01
2023-11-30T09:06:05.202Z,26.72
2023-11-30T09:08:34.692Z,26.72
2023-11-30T09:11:02.210Z,26.86
2023-11-30T09:13:29.714Z,26.81
2023-11-30T09:15:58.684Z,26.75
2023-11-30T09:18:26.132Z,26.82
2023-11-30T09:20:53.629Z,26.68
2023-11-30T09:23:21.142Z,26.71
2023-11-30T09:25:48.650Z,26.82
2023-11-30T09:28:16.203Z,27.00
2023-11-30T09:30:43.860Z,27.03
2023-11-30T09:33:14.365Z,26.84
2023-11-30T09:35:41.944Z,27.04
2023-11-30T09:38:10.698Z,26.99
2023-11-30T09:40:38.248Z,26.98
2023-11-30T09:43:05.821Z,26.94
2023-11-30T09:45:33.403Z,26.87
2023-11-30T09:48:00.950Z,26.97
2023-11-30T09:50:29.820Z,26.97
2023-11-30T09:52:57.338Z,26.93
2023-11-30T09:55:26.592Z,27.22
2023-11-30T09:57:54.204Z,26.76
2023-11-30T10:00:22.358Z,27.12
2023-11-30T10:02:54.432Z,26.93
2023-11-30T10:05:22.285Z,26.88
2023-11-30T10:07:51.203Z,26.99
2023-11-30T10:10:18.539Z,26.94
2023-11-30T10:12:46.139Z,27.08
2023-11-30T10:15:13.982Z,27.03
2023-11-30T10:17:42.692Z,27.02
2023-11-30T10:20:12.526Z,27.05
2023-11-30T10:22:40.553Z,26.78
2023-11-30T10:25:10.260Z,26.86
2023-11-30T10:27:37.983Z,26.91
2023-11-30T10:30:07.668Z,26.76
2023-11-30T10:32:36.710Z,27.15
2023-11-30T10:35:06.236Z,27.26
2023-11-30T10:37:35.023Z,27.22
2023-11-30T10:40:05.012Z,27.32
2023-11-30T10:42:34.931Z,27.22
2023-11-30T10:45:03.364Z,27.21
2023-11-30T10:47:31.380Z,27.22
2023-11-30T10:49:58.948Z,27.24
2023-11-30T10:52:26.899Z,27.34
2023-11-30T10:54:57.125Z,27.26
2023-11-30T10:57:24.642Z,27.35
2023-11-30T10:59:59.622Z,27.51
2023-11-30T11:02:27.242Z,27.31
2023-11-30T11:04:54.873Z,27.51
2023-11-30T11:07:22.483Z,27.26
2023-11-30T11:09:53.043Z,27.50
2023-11-30T11:12:21.585Z,27.24
2023-11-30T11:14:50.314Z,27.47
2023-11-30T11:17:21.525Z,27.43
2023-11-30T11:19:49.070Z,27.35
2023-11-30T11:22:17.764Z,27.34
2023-11-30T11:24:46.130Z,27.23
2023-11-30T11:27:14.020Z,27.11
2023-11-30T11:29:45.038Z,27.06
2023-11-30T11:32:13.260Z,27.28
2023-11-30T11:34:42.127Z,27.02
2023-11-30T11:37:09.637Z,27.14
2023-11-30T11:39:37.285Z,27.07
2023-11-30T11:42:05.236Z,27.23
2023-11-30T11:44:32.770Z,27.32
2023-11-30T11:47:00.778Z,27.26
2023-11-30T11:49:28.341Z,27.08
2023-11-30T11:51:57.275Z,26.94
2023-11-30T11:54:24.755Z,27.30
2023-11-30T11:56:52.927Z,27.24
2023-11-30T11:59:23.651Z,27.07
2023-11-30T12:01:51.683Z,27.41
2023-11-30T12:04:32.142Z,27.24
2023-11-30T12:07:01.430Z,27.33
2023-11-30T12:09:28.998Z,27.26
2023-11-30T12:12:04.525Z,27.28
2023-11-30T12:14:32.032Z,27.19
2023-11-30T12:17:05.554Z,27.25
2023-11-30T12:19:33.058Z,27.35
2023-11-30T12:22:02.014Z,27.18
2023-11-30T12:24:29.365Z,27.47
2023-11-30T12:26:56.970Z,27.40
2023-11-30T12:29:24.490Z,27.21
2023-11-30T12:31:53.538Z,27.47
2023-11-30T12:34:22.424Z,27.41
2023-11-30T12:36:51.573Z,27.25
2023-11-30T12:39:21.751Z,27.38
2023-11-30T12:41:49.139Z,27.55
2023-11-30T12:44:17.203Z,27.25
2023-11-30T12:46:45.450Z,27.36
2023-11-30T12:49:13.088Z,27.38
2023-11-30T12:51:40.701Z,27.09
2023-11-30T12:54:08.903Z,27.38
2023-11-30T12:56:37.823Z,27.27
2023-11-30T12:59:05.399Z,27.63
2023-11-30T13:01:32.954Z,27.48
2023-11-30T13:04:01.522Z,27.88
2023-11-30T13:06:29.247Z,27.85
2023-11-30T13:08:56.776Z,27.69
2023-11-30T13:11:25.011Z,27.62
2023-11-30T13:13:55.912Z,27.74
2023-11-30T13:16:23.597Z,27.57
2023-11-30T13:18:51.298Z,27.43
2023-11-30T13:21:18.946Z,27.24
2023-11-30T13:23:46.493Z,27.25
2023-11-30T13:26:14.080Z,27.25
2023-11-30T13:28:47.691Z,27.32
2023-11-30T13:31:21.179Z,27.51
2023-11-30T13:33:48.854Z,27.72
2023-11-30T13:36:16.872Z,27.41
2023-11-30T13:38:44.420Z,27.51
2023-11-30T13:41:11.994Z,27.30
2023-11-30T13:43:39.665Z,27.39
2023-11-30T13:46:13.870Z,27.35
2023-11-30T13:48:42.844Z,27.36
2023-11-30T13:51:10.464Z,27.35
2023-11-30T13:53:39.347Z,27.51
2023-11-30T13:56:07.806Z,27.54
2023-11-30T13:58:35.317Z,27.54
2023-11-30T14:01:02.896Z,27.42
2023-11-30T14:03:30.570Z,27.43
2023-11-30T14:05:59.481Z,27.56
2023-11-30T14:08:27.728Z,27.48
2023-11-30T14:10:55.310Z,27.52
2023-11-30T14:13:22.821Z,27.48
2023-11-30T14:15:50.381Z,27.37
2023-11-30T14:18:18.334Z,27.42
2023-11-30T14:20:45.950Z,27.40
2023-11-30T14:23:14.895Z,27.51
2023-11-30T14:25:42.730Z,27.34
2023-11-30T14:28:12.812Z,27.39
2023-11-30T14:30:41.625Z,27.45
2023-11-30T14:33:12.331Z,27.38
2023-11-30T14:35:41.553Z,27.30
2023-11-30T14:38:09.472Z,27.27
2023-11-30T14:40:38.648Z,27.30
2023-11-30T14:43:06.977Z,27.39
2023-11-30T14:45:34.584Z,27.51
2023-11-30T14:48:02.250Z,27.50
2023-11-30T14:50:29.803Z,27.40
2023-11-30T14:52:57.391Z,27.38
2023-11-30T14:55:24.884Z,27.39
2023-11-30T14:57:55.128Z,27.16
2023-11-30T15:00:24.279Z,27.36
2023-11-30T15:02:53.769Z,27.13
2023-11-30T15:05:21.505Z,27.36
2023-11-30T15:07:49.093Z,27.53
2023-11-30T15:10:18.239Z,27.55
2023-11-30T15:12:45.847Z,27.55
2023-11-30T15:15:16.482Z,27.33
2023-11-30T15:17:45.082Z,27.20
2023-11-30T15:20:13.848Z,27.34
2023-11-30T15:22:41.469Z,27.55
2023-11-30T15:25:11.182Z,27.71
2023-11-30T15:27:38.843Z,27.55
2023-11-30T15:30:08.898Z,27.33
2023-11-30T15:32:37.827Z,27.41
2023-11-30T15:35:05.917Z,27.55
2023-11-30T15:37:36.133Z,27.34
2023-11-30T15:40:06.514Z,27.22
2023-11-30T15:42:34.549Z,27.25
2023-11-30T15:45:02.123Z,27.38
2023-11-30T15:47:29.701Z,27.42
2023-11-30T15:49:59.048Z,27.32
2023-11-30T15:52:26.742Z,27.24
2023-11-30T15:54:54.501Z,27.58
2023-11-30T15:57:23.936Z,27.43
2023-11-30T15:59:51.478Z,27.38
2023-11-30T16:02:19.049Z,27.38
2023-11-30T16:04:46.744Z,27.25
2023-11-30T16:07:15.656Z,27.46
2023-11-30T16:09:45.008Z,27.48
2023-11-30T16:12:12.602Z,27.13
2023-11-30T16:14:40.963Z,27.47
2023-11-30T16:17:09.032Z,27.46
2023-11-30T16:19:36.635Z,27.73
2023-11-30T16:22:04.741Z,27.41
2023-11-30T16:24:33.713Z,27.53
2023-11-30T16:27:01.762Z,27.48
2023-11-30T16:33:20.417Z,27.43
2023-11-30T16:35:48.676Z,27.40
2023-11-30T16:38:16.229Z,27.25
2023-11-30T16:40:45.137Z,27.60
2023-11-30T16:43:12.698Z,27.29
2023-11-30T16:45:40.297Z,27.25
2023-11-30T16:48:07.865Z,27.21
2023-11-30T16:50:35.516Z,27.45
2023-11-30T16:53:04.795Z,27.34
2023-11-30T16:55:32.799Z,27.37
2023-11-30T16:58:01.767Z,27.29
2023-11-30T17:00:29.165Z,27.26
2023-11-30T17:02:57.111Z,27.25
2023-11-30T17:05:24.797Z,27.42
2023-11-30T17:07:52.549Z,27.37
2023-11-30T17:10:20.064Z,27.48
2023-11-30T17:12:47.642Z,27.29
2023-11-30T17:15:18.221Z,27.28
2023-11-30T17:17:46.998Z,27.27
2023-11-30T17:20:14.706Z,27.38
2023-11-30T17:22:42.741Z,27.41
2023-11-30T17:25:10.694Z,27.23
2023-11-30T17:27:38.271Z,27.42
2023-11-30T17:30:06.454Z,27.59
2023-11-30T17:32:35.464Z,27.31
2023-11-30T17:35:03.298Z,27.60
2023-11-30T17:37:31.080Z,27.54
2023-11-30T17:39:58.702Z,27.55
2023-11-30T17:42:26.243Z,27.53
2023-11-30T17:44:53.805Z,27.30
2023-11-30T17:47:21.437Z,27.26
2023-11-30T17:49:50.330Z,27.27
2023-11-30T17:52:17.741Z,27.54
2023-11-30T17:54:45.289Z,28.11
2023-11-30T17:57:12.803Z,28.47
2023-11-30T17:59:40.301Z,28.62
2023-11-30T18:02:07.916Z,28.77
2023-11-30T18:04:35.745Z,28.50
2023-11-30T18:07:08.523Z,28.12
2023-11-30T18:12:03.407Z,28.40
2023-11-30T18:14:32.974Z,28.48
2023-11-30T18:17:00.789Z,28.62
2023-11-30T18:19:28.360Z,28.13
2023-11-30T18:21:55.951Z,28.63
2023-11-30T18:24:30.634Z,28.59
2023-11-30T18:26:58.572Z,28.57
2023-11-30T18:29:26.217Z,28.74
2023-11-30T18:31:53.845Z,28.69
2023-11-30T18:34:21.464Z,28.73
2023-11-30T18:36:49.058Z,28.70
2023-11-30T18:39:16.806Z,28.63
2023-11-30T18:41:45.755Z,28.78
2023-11-30T18:44:13.169Z,28.48
2023-11-30T18:46:40.785Z,28.41
2023-11-30T18:49:08.619Z,28.49
2023-11-30T18:51:36.901Z,28.71
2023-11-30T18:54:04.660Z,28.82
2023-11-30T18:56:32.311Z,28.44
2023-11-30T18:59:01.711Z,28.50
2023-11-30T19:01:30.504Z,28.50
2023-11-30T19:03:58.401Z,28.66
2023-11-30T19:06:25.989Z,28.54
2023-11-30T19:08:54.125Z,28.57
2023-11-30T19:11:22.497Z,28.75
2023-11-30T19:13:50.084Z,28.68
2023-11-30T19:16:19.194Z,28.86
2023-11-30T19:18:48.589Z,28.67
2023-11-30T19:21:16.840Z,28.72
2023-11-30T19:23:46.131Z,28.70
2023-11-30T19:26:13.964Z,28.55
2023-11-30T19:28:41.556Z,28.46
2023-11-30T19:31:09.367Z,28.78
2023-11-30T19:33:38.321Z,28.80
2023-11-30T19:36:06.127Z,28.55
2023-11-30T19:38:33.844Z,28.70
2023-11-30T19:41:01.541Z,28.70
2023-11-30T19:43:29.159Z,28.64
2023-11-30T19:45:59.745Z,28.84
2023-11-30T19:48:28.840Z,28.74
2023-11-30T19:50:57.807Z,28.39
2023-11-30T19:53:25.210Z,28.64
2023-11-30T19:55:52.873Z,28.47
2023-11-30T19:58:20.438Z,28.65
2023-11-30T20:00:49.263Z,28.75
2023-11-30T20:03:16.869Z,28.74
2023-11-30T20:05:44.550Z,28.54
2023-11-30T20:08:13.442Z,28.68
2023-11-30T20:10:40.801Z,28.58
2023-11-30T20:13:08.313Z,28.51
2023-11-30T20:15:36.029Z,28.52
2023-11-30T20:18:05.076Z,28.82
2023-11-30T20:20:32.661Z,28.78
2023-11-30T20:23:01.393Z,28.63
2023-11-30T20:25:30.285Z,28.81
2023-11-30T20:27:57.671Z,28.71
2023-11-30T20:30:26.283Z,28.72
2023-11-30T20:32:53.916Z,28.67
2023-11-30T20:35:21.476Z,28.51
2023-11-30T20:37:50.233Z,28.65
2023-11-30T20:40:17.838Z,28.71
2023-11-30T20:42:46.850Z,28.72
2023-11-30T20:45:15.805Z,28.50
2023-11-30T20:47:43.187Z,28.48
2023-11-30T20:50:10.810Z,28.52
2023-11-30T20:52:38.367Z,28.52
2023-11-30T20:55:06.803Z,28.48
2023-11-30T20:57:36.147Z,28.45
2023-11-30T21:00:07.144Z,28.46
2023-11-30T21:02:35.031Z,28.65
2023-11-30T21:05:02.726Z,28.44
2023-11-30T21:07:30.362Z,28.70
2023-11-30T21:09:58.105Z,28.51
2023-11-30T21:12:26.026Z,28.57
2023-11-30T21:14:53.578Z,28.45
2023-11-30T21:17:22.469Z,28.57
2023-11-30T21:19:50.014Z,28.86
2023-11-30T21:22:17.596Z,28.66
2023-11-30T21:24:45.950Z,28.57
2023-11-30T21:27:13.796Z,28.50
2023-11-30T21:29:41.767Z,28.41
2023-11-30T21:32:10.012Z,28.27
2023-11-30T21:34:40.842Z,28.40
2023-11-30T21:37:08.497Z,28.52
2023-11-30T21:39:36.231Z,28.43
2023-11-30T21:42:03.929Z,28.67
2023-11-30T21:44:31.468Z,28.29
2023-11-30T21:46:59.136Z,28.61
2023-11-30T21:49:26.652Z,28.62
2023-11-30T21:51:55.603Z,28.61
2023-11-30T21:54:22.978Z,28.38
2023-11-30T21:56:50.586Z,28.62
2023-11-30T21:59:18.555Z,28.41
2023-11-30T22:01:47.222Z,28.44
2023-11-30T22:04:15.022Z,28.39
2023-11-30T22:06:44.374Z,28.55
2023-11-30T22:09:13.288Z,28.44
2023-11-30T22:11:43.565Z,28.55
2023-11-30T22:14:11.441Z,28.48
2023-11-30T22:16:40.926Z,28.67
2023-11-30T22:19:08.724Z,28.66
2023-11-30T22:21:36.355Z,28.27
2023-11-30T22:24:03.898Z,28.63
2023-11-30T22:26:32.752Z,28.28
2023-11-30T22:29:02.791Z,28.75
2023-11-30T22:31:34.376Z,28.59
2023-11-30T22:34:02.288Z,28.66
2023-11-30T22:36:29.879Z,28.68
2023-11-30T22:38:58.215Z,28.69
2023-11-30T22:41:25.824Z,28.47
2023-11-30T22:43:54.705Z,28.35
2023-11-30T22:46:22.335Z,28.34
2023-11-30T22:48:51.008Z,28.71
2023-11-30T22:51:18.946Z,28.37
2023-11-30T22:53:46.664Z,28.36
2023-11-30T22:56:18.101Z,28.37
2023-11-30T22:58:45.802Z,28.55
2023-11-30T23:01:15.319Z,28.68
2023-11-30T23:03:44.428Z,28.48
2023-11-30T23:06:12.243Z,28.56
2023-11-30T23:08:39.803Z,28.46
2023-11-30T23:11:08.767Z,28.52
2023-11-30T23:13:36.113Z,28.31
2023-11-30T23:16:03.906Z,28.41
2023-11-30T23:18:33.086Z,28.48
2023-11-30T23:21:00.730Z,28.35
2023-11-30T23:23:28.329Z,28.16
2023-11-30T23:25:55.892Z,28.28
2023-11-30T23:28:23.440Z,28.51
2023-11-30T23:30:51.004Z,28.41
2023-11-30T23:33:18.519Z,28.33
2023-11-30T23:35:47.459Z,28.39
2023-11-30T23:38:14.949Z,28.48
2023-11-30T23:40:42.544Z,28.31
2023-11-30T23:43:10.124Z,28.66
2023-11-30T23:45:37.731Z,28.49
2023-11-30T23:48:05.944Z,28.46
2023-11-30T23:50:33.469Z,28.47
2023-11-30T23:53:02.403Z,28.63
2023-11-30T23:55:29.805Z,28.59
2023-11-30T23:57:57.851Z,28.59
